createdAt,value
2019-06-20T00:04:47.824Z,96689.53
2019-06-20T00:09:43.611Z,96690.92
2019-06-20T00:14:39.387Z,96675.25
2019-06-20T00:19:35.232Z,96692.20
2019-06-20T00:24:31.158Z,96691.31
2019-06-20T00:29:27.265Z,96694.69
2019-06-20T00:34:23.012Z,96692.42
2019-06-20T00:39:18.805Z,96696.66
2019-06-20T00:44:14.513Z,96692.13
2019-06-20T00:49:10.285Z,96689.94
2019-06-20T00:54:06.273Z,96691.90
2019-06-20T00:59:02.340Z,96692.67
2019-06-20T01:03:58.214Z,96692.20
2019-06-20T01:08:54.068Z,96691.41
2019-06-20T01:13:52.730Z,96694.28
2019-06-20T01:18:47.372Z,96698.85
2019-06-20T01:23:43.131Z,96696.69
2019-06-20T01:28:38.858Z,96702.86
2019-06-20T01:33:34.706Z,96701.07
2019-06-20T01:38:30.598Z,96704.61
2019-06-20T01:43:26.364Z,96698.34
2019-06-20T01:48:22.248Z,96689.27
2019-06-20T01:53:19.304Z,96695.27
2019-06-20T01:58:15.056Z,96681.05
2019-06-20T02:03:10.774Z,96687.66
2019-06-20T02:08:07.685Z,96686.02
2019-06-20T02:13:03.682Z,96699.61
2019-06-20T02:17:59.542Z,96701.61
2019-06-20T02:22:55.353Z,96710.85
2019-06-20T02:27:51.223Z,96704.19
2019-06-20T02:32:47.152Z,96697.30
2019-06-20T02:37:43.158Z,96702.08
2019-06-20T02:42:38.880Z,96711.66
2019-06-20T02:47:34.653Z,96718.73
2019-06-20T02:52:30.758Z,96727.59
2019-06-20T02:57:26.601Z,96734.05
2019-06-20T03:02:22.366Z,96742.20
2019-06-20T03:07:18.142Z,96738.84
2019-06-20T03:12:13.969Z,96733.31
2019-06-20T03:17:09.761Z,96729.98
2019-06-20T03:22:05.493Z,96739.55
2019-06-20T03:27:01.248Z,96750.44
2019-06-20T03:31:57.053Z,96750.25
2019-06-20T03:36:52.880Z,96754.97
2019-06-20T03:41:48.679Z,96759.41
2019-06-20T03:46:44.513Z,96754.62
2019-06-20T03:51:40.315Z,96764.73
2019-06-20T03:56:36.124Z,96775.11
2019-06-20T04:01:32.464Z,96786.48
2019-06-20T04:06:28.224Z,96792.67
2019-06-20T04:11:23.980Z,96787.13
2019-06-20T04:16:20.750Z,96789.60
2019-06-20T04:21:16.649Z,96796.67
2019-06-20T04:26:12.480Z,96797.38
2019-06-20T04:31:08.207Z,96794.42
2019-06-20T04:36:04.011Z,96795.59
2019-06-20T04:41:00.106Z,96803.87
2019-06-20T04:46:04.433Z,96802.22
2019-06-20T04:51:00.149Z,96798.03
2019-06-20T04:55:55.920Z,96800.97
2019-06-20T05:00:51.852Z,96791.20
2019-06-20T05:05:47.824Z,96784.21
2019-06-20T05:10:43.923Z,96776.53
2019-06-20T05:15:51.952Z,96779.17
2019-06-20T05:20:38.756Z,96772.77
2019-06-20T05:25:34.963Z,96779.71
2019-06-20T05:30:31.529Z,96772.88
2019-06-20T05:35:27.317Z,96771.89
2019-06-20T05:40:23.253Z,96776.83
2019-06-20T05:45:19.473Z,96768.12
2019-06-20T05:50:16.634Z,96780.83
2019-06-20T05:55:12.672Z,96771.91
2019-06-20T06:00:15.489Z,96773.09
2019-06-20T06:05:11.407Z,96782.50
2019-06-20T06:10:08.849Z,96788.23
2019-06-20T06:15:04.777Z,96786.67
2019-06-20T06:20:00.566Z,96777.06
2019-06-20T06:24:56.662Z,96780.83
2019-06-20T06:29:53.439Z,96776.06
2019-06-20T06:34:50.641Z,96784.59
2019-06-20T06:39:46.943Z,96788.16
2019-06-20T06:44:43.206Z,96789.95
2019-06-20T06:49:38.956Z,96785.47
2019-06-20T06:54:34.917Z,96782.29
2019-06-20T06:59:30.780Z,96786.42
2019-06-20T07:04:26.560Z,96787.00
2019-06-20T07:09:22.425Z,96798.65
2019-06-20T07:14:18.234Z,96803.23
2019-06-20T07:19:14.115Z,96805.56
2019-06-20T07:24:09.885Z,96811.34
2019-06-20T07:34:07.961Z,96810.33
2019-06-20T07:39:15.416Z,96813.59
2019-06-20T07:44:27.636Z,96826.92
2019-06-20T07:49:23.487Z,96828.82
2019-06-20T07:54:21.665Z,96827.70
2019-06-20T07:59:21.786Z,96831.30
2019-06-20T08:04:20.852Z,96824.64
2019-06-20T08:09:17.212Z,96835.27
2019-06-20T08:14:28.484Z,96837.70
2019-06-20T08:19:24.374Z,96844.80
2019-06-20T08:24:20.327Z,96855.78
2019-06-20T08:29:21.130Z,96851.56
2019-06-20T08:34:14.100Z,96854.66
2019-06-20T08:45:39.259Z,96867.84
2019-06-20T08:50:46.575Z,96872.73
2019-06-20T08:56:10.710Z,96870.54
2019-06-20T09:06:32.912Z,96864.41
2019-06-20T09:11:28.784Z,96855.38
2019-06-20T09:16:24.890Z,96851.88
2019-06-20T09:40:39.847Z,96880.08
2019-06-20T09:45:44.886Z,96872.88
2019-06-20T09:50:54.503Z,96889.19
2019-06-20T09:55:54.188Z,96885.76
2019-06-20T10:00:55.025Z,96888.63
2019-06-20T10:05:56.694Z,96901.14
2019-06-20T10:10:56.724Z,96904.91
2019-06-20T10:15:53.653Z,96909.77
2019-06-20T10:21:11.352Z,96913.63
2019-06-20T10:26:31.678Z,96911.16
2019-06-20T10:31:32.127Z,96912.80
2019-06-20T10:36:44.820Z,96904.09
2019-06-20T10:41:40.234Z,96915.51
2019-06-20T10:46:58.594Z,96928.40
2019-06-20T10:51:59.393Z,96930.95
2019-06-20T10:56:57.478Z,96925.55
2019-06-20T11:02:02.127Z,96926.52
2019-06-20T11:07:01.440Z,96926.36
2019-06-20T11:11:57.268Z,96915.17
2019-06-20T11:16:53.309Z,96926.34
2019-06-20T11:21:59.776Z,96932.80
2019-06-20T11:26:53.720Z,96923.07
2019-06-20T11:31:50.591Z,96945.08
2019-06-20T11:37:06.907Z,96960.16
2019-06-20T11:42:12.669Z,96969.99
2019-06-20T11:47:13.436Z,96979.92
2019-06-20T11:52:14.333Z,96977.48
2019-06-20T11:58:34.181Z,96979.97
2019-06-20T12:10:25.021Z,96975.21
2019-06-20T12:15:22.678Z,96975.97
2019-06-20T12:20:20.788Z,96969.53
2019-06-20T12:25:19.602Z,96973.59
2019-06-20T12:30:18.152Z,96975.13
2019-06-20T12:35:15.244Z,96965.30
2019-06-20T12:40:12.090Z,96955.03
2019-06-20T12:45:08.371Z,96955.11
2019-06-20T12:50:04.453Z,96936.34
2019-06-20T12:55:00.548Z,96928.27
2019-06-20T13:00:01.667Z,96921.99
2019-06-20T13:04:57.436Z,96911.94
2019-06-20T13:09:53.254Z,96911.72
2019-06-20T13:14:49.606Z,96900.92
2019-06-20T13:19:46.509Z,96889.98
2019-06-20T13:24:42.760Z,96888.69
2019-06-20T13:29:39.163Z,96875.90
2019-06-20T13:34:35.434Z,96868.94
2019-06-20T13:39:31.420Z,96867.03
2019-06-20T13:44:27.324Z,96876.47
2019-06-20T13:49:24.537Z,96880.25
2019-06-20T13:54:21.678Z,96867.97
2019-06-20T13:59:22.809Z,96870.19
2019-06-20T14:04:18.771Z,96867.67
2019-06-20T14:09:16.846Z,96863.36
2019-06-20T14:14:13.924Z,96866.83
2019-06-20T14:19:09.988Z,96863.52
2019-06-20T14:24:06.532Z,96858.26
2019-06-20T14:29:02.630Z,96850.09
2019-06-20T14:34:00.351Z,96855.11
2019-06-20T14:38:57.977Z,96856.98
2019-06-20T14:43:58.346Z,96854.17
2019-06-20T14:48:56.940Z,96859.92
2019-06-20T14:53:58.070Z,96858.72
2019-06-20T14:58:55.432Z,96844.31
2019-06-20T15:03:51.744Z,96851.86
2019-06-20T15:08:51.017Z,96840.41
2019-06-20T15:13:47.681Z,96842.91
2019-06-20T15:18:50.147Z,96831.16
2019-06-20T15:23:49.546Z,96819.26
2019-06-20T15:28:46.236Z,96831.25
2019-06-20T15:33:43.567Z,96829.66
2019-06-20T15:38:39.583Z,96820.14
2019-06-20T15:43:43.046Z,96812.09
2019-06-20T15:48:40.928Z,96813.16
2019-06-20T15:53:37.715Z,96815.87
2019-06-20T15:58:35.719Z,96810.78
2019-06-20T16:03:32.874Z,96818.17
2019-06-20T16:08:58.809Z,96815.81
2019-06-20T16:14:00.932Z,96814.94
2019-06-20T16:19:08.121Z,96820.28
2019-06-20T16:24:12.644Z,96814.02
2019-06-20T16:29:10.721Z,96825.88
2019-06-20T16:34:45.947Z,96826.11
2019-06-20T16:39:43.385Z,96837.34
2019-06-20T16:44:50.154Z,96848.28
2019-06-20T16:50:00.707Z,96843.16
2019-06-20T16:55:20.022Z,96841.91
2019-06-20T17:00:18.387Z,96838.98
2019-06-20T17:05:18.034Z,96853.66
2019-06-20T17:10:15.772Z,96875.16
2019-06-20T17:15:13.305Z,96875.11
2019-06-20T17:20:11.294Z,96877.90
2019-06-20T17:25:12.565Z,96879.52
2019-06-20T17:37:02.982Z,96854.18
2019-06-20T17:42:30.483Z,96867.98
2019-06-20T17:47:28.219Z,96885.68
2019-06-20T17:58:36.569Z,96863.13
2019-06-20T18:03:39.634Z,96862.06
2019-06-20T18:08:42.442Z,96863.07
2019-06-20T18:13:46.647Z,96865.73
2019-06-20T18:19:08.601Z,96878.42
2019-06-20T18:24:23.889Z,96882.30
2019-06-20T18:29:24.062Z,96888.63
2019-06-20T18:34:30.483Z,96897.67
2019-06-20T18:40:13.038Z,96896.52
2019-06-20T18:45:11.006Z,96889.92
2019-06-20T18:50:08.151Z,96891.44
2019-06-20T18:55:04.880Z,96900.73
2019-06-20T19:12:24.515Z,96920.43
2019-06-20T19:17:20.333Z,96917.55
2019-06-20T19:22:17.834Z,96931.80
2019-06-20T19:27:13.767Z,96941.30
2019-06-20T19:32:09.760Z,96943.78
2019-06-20T19:37:05.683Z,96946.88
2019-06-20T19:42:08.195Z,96954.61
2019-06-20T19:47:21.047Z,96972.72
2019-06-20T19:52:21.283Z,96966.17
2019-06-20T19:57:14.395Z,96987.08
2019-06-20T20:02:10.830Z,96989.06
2019-06-20T20:07:07.366Z,96989.70
2019-06-20T20:12:05.241Z,96996.33
2019-06-20T20:17:01.392Z,97007.64
2019-06-20T20:21:57.322Z,97009.62
2019-06-20T20:26:53.299Z,97022.44
2019-06-20T20:31:49.724Z,97031.25
2019-06-20T20:36:46.205Z,97037.22
2019-06-20T20:41:45.961Z,97036.86
2019-06-20T20:46:43.561Z,97036.48
2019-06-20T20:51:48.873Z,97043.69
2019-06-20T20:56:44.889Z,97048.20
2019-06-20T21:01:41.216Z,97048.88
2019-06-20T21:06:40.553Z,97054.17
2019-06-20T21:11:36.845Z,97061.01
2019-06-20T21:16:34.156Z,97054.69
2019-06-20T21:21:33.957Z,97060.84
2019-06-20T21:26:48.352Z,97058.17
2019-06-20T21:31:35.212Z,97067.30
2019-06-20T21:36:49.950Z,97066.32
2019-06-20T21:41:50.334Z,97061.16
2019-06-20T21:46:54.207Z,97063.97
2019-06-20T21:51:55.744Z,97063.99
2019-06-20T21:57:02.919Z,97064.80
2019-06-20T22:01:59.425Z,97060.68
2019-06-20T22:07:25.164Z,97059.48
2019-06-20T22:12:51.772Z,97061.81
2019-06-20T22:17:47.946Z,97068.77
2019-06-20T22:23:01.206Z,97072.45
2019-06-20T22:28:09.155Z,97076.00
2019-06-20T22:33:06.192Z,97076.73
2019-06-20T22:38:04.721Z,97075.63
2019-06-20T22:43:08.545Z,97079.81
2019-06-20T22:48:03.872Z,97080.79
2019-06-20T22:53:08.744Z,97079.00
2019-06-20T22:58:05.145Z,97078.53
2019-06-20T23:03:04.778Z,97082.14
2019-06-20T23:08:01.747Z,97082.02
2019-06-20T23:13:01.414Z,97071.89
2019-06-20T23:18:02.281Z,97065.84
2019-06-20T23:23:01.252Z,97070.53
2019-06-20T23:28:00.188Z,97073.67
2019-06-20T23:32:58.838Z,97077.60
2019-06-20T23:37:56.234Z,97083.70
2019-06-20T23:42:52.665Z,97082.27
2019-06-20T23:47:50.559Z,97077.89
2019-06-20T23:53:00.198Z,97083.39
2019-06-20T23:57:56.199Z,97082.70
